Time;durP1;ratioP1;P1;durP2;ratioP2;P2;SDS_P1;SDS_P2;PMS_P1;PMS_P2;Temp;Humidity;BMP_temperature;BMP_pressure;BME280_temperature;BME280_humidity;BME280_pressure;Samples;Min_cycle;Max_cycle;Signal;HPM_P1;HPM_P2
2022/08/07 00:03:27;;;;;;;0.68;0.52;;;;;;;;;;8409428;28;20568;-70
2022/08/07 00:07:27;;;;;;;3.72;0.47;;;;;;;;;;8410308;28;20032;-71
2022/08/07 00:11:27;;;;;;;1.73;0.50;;;;;;;;;;8409975;27;20021;-70
2022/08/07 00:15:29;;;;;;;1.58;0.50;;;;;;;;;;8408513;28;20349;-71
2022/08/07 00:19:30;;;;;;;0.70;0.40;;;;;;;;;;8392165;28;20458;-71
2022/08/07 00:23:30;;;;;;;0.63;0.57;;;;;;;;;;8409580;28;20050;-70
2022/08/07 00:27:31;;;;;;;0.85;0.52;;;;;;;;;;8409969;28;20074;-71
2022/08/07 00:31:31;;;;;;;0.43;0.43;;;;;;;;;;8411262;28;20215;-70
2022/08/07 00:35:32;;;;;;;0.73;0.60;;;;;;;;;;8407479;28;20035;-70
2022/08/07 00:39:35;;;;;;;1.48;0.60;;;;;;;;;;8410671;28;20370;-71
2022/08/07 00:43:35;;;;;;;0.50;0.50;;;;;;;;;;8408662;28;20886;-71
2022/08/07 00:47:36;;;;;;;1.43;0.50;;;;;;;;;;8408768;28;20093;-71
2022/08/07 00:51:37;;;;;;;1.40;0.60;;;;;;;;;;8388891;28;20624;-71
2022/08/07 00:55:37;;;;;;;1.98;0.60;;;;;;;;;;8407657;28;20028;-71
2022/08/07 00:59:37;;;;;;;0.52;0.50;;;;;;;;;;8407723;28;20031;-71
2022/08/07 01:03:38;;;;;;;0.90;0.50;;;;;;;;;;8406651;28;20809;-70
2022/08/07 01:07:39;;;;;;;0.52;0.52;;;;;;;;;;8410628;28;20047;-71
2022/08/07 01:11:39;;;;;;;1.23;0.70;;;;;;;;;;8403983;28;20091;-71
2022/08/07 01:15:40;;;;;;;0.93;0.50;;;;;;;;;;8410837;28;20166;-71
2022/08/07 01:19:41;;;;;;;0.60;0.60;;;;;;;;;;8409032;28;20129;-71
2022/08/07 01:23:42;;;;;;;0.80;0.50;;;;;;;;;;8403108;28;20072;-71
2022/08/07 01:27:42;;;;;;;0.57;0.50;;;;;;;;;;8407845;28;20251;-71
2022/08/07 01:31:42;;;;;;;2.30;0.50;;;;;;;;;;8403619;28;20489;-71
2022/08/07 01:35:43;;;;;;;1.25;0.60;;;;;;;;;;8408418;28;20308;-71
2022/08/07 01:39:43;;;;;;;0.57;0.57;;;;;;;;;;8409648;28;20024;-71
2022/08/07 01:43:44;;;;;;;0.47;0.40;;;;;;;;;;8407083;28;20690;-71
2022/08/07 01:47:44;;;;;;;0.45;0.45;;;;;;;;;;8407715;28;20416;-71
2022/08/07 01:51:45;;;;;;;0.52;0.52;;;;;;;;;;8408023;28;20038;-70
2022/08/07 01:55:48;;;;;;;1.02;0.50;;;;;;;;;;8410855;28;20128;-71
2022/08/07 01:59:50;;;;;;;1.10;0.60;;;;;;;;;;8408848;28;20592;-70
2022/08/07 02:03:56;;;;;;;1.75;0.60;;;;;;;;;;8406360;28;20460;-71
2022/08/07 02:07:57;;;;;;;0.65;0.45;;;;;;;;;;8407176;28;20301;-71
2022/08/07 02:12:15;;;;;;;0.65;0.50;;;;;;;;;;8392544;28;20056;-71
2022/08/07 02:16:16;;;;;;;1.50;0.50;;;;;;;;;;8413414;28;20031;-70
2022/08/07 02:20:17;;;;;;;0.68;0.40;;;;;;;;;;8414162;28;20464;-71
2022/08/07 02:24:18;;;;;;;0.45;0.40;;;;;;;;;;8415911;28;20122;-71
2022/08/07 02:28:19;;;;;;;0.43;0.43;;;;;;;;;;8412960;28;20578;-70
2022/08/07 02:32:19;;;;;;;1.58;0.60;;;;;;;;;;8412470;28;20341;-71
2022/08/07 02:36:20;;;;;;;1.00;0.60;;;;;;;;;;8414228;28;20494;-71
2022/08/07 02:40:20;;;;;;;2.47;0.50;;;;;;;;;;8413043;28;20035;-71
2022/08/07 02:44:22;;;;;;;0.52;0.40;;;;;;;;;;8413894;28;20460;-71
2022/08/07 02:48:24;;;;;;;0.50;0.50;;;;;;;;;;8412235;28;20855;-70
2022/08/07 02:52:33;;;;;;;0.50;0.50;;;;;;;;;;8415427;28;20404;-71
2022/08/07 02:56:36;;;;;;;0.52;0.50;;;;;;;;;;8408601;28;20499;-71
2022/08/07 03:00:37;;;;;;;0.93;0.50;;;;;;;;;;8411222;28;20032;-71
2022/08/07 03:04:38;;;;;;;1.63;0.60;;;;;;;;;;8412580;28;20037;-71
2022/08/07 03:08:38;;;;;;;1.95;0.50;;;;;;;;;;8412009;28;20391;-71
2022/08/07 03:12:39;;;;;;;0.63;0.53;;;;;;;;;;8392389;28;20023;-70
2022/08/07 03:16:39;;;;;;;2.85;0.50;;;;;;;;;;8413641;27;20296;-70
2022/08/07 03:20:40;;;;;;;0.40;0.40;;;;;;;;;;8390758;28;20027;-70
2022/08/07 03:24:40;;;;;;;1.08;0.50;;;;;;;;;;8410949;28;20420;-71
2022/08/07 03:28:41;;;;;;;0.95;0.60;;;;;;;;;;8412240;28;20039;-70
2022/08/07 03:32:42;;;;;;;1.90;0.57;;;;;;;;;;8411421;28;20048;-71
2022/08/07 03:36:43;;;;;;;1.60;0.47;;;;;;;;;;8413342;27;20127;-71
2022/08/07 03:40:43;;;;;;;1.70;0.70;;;;;;;;;;8411494;28;20640;-70
2022/08/07 03:44:44;;;;;;;2.42;0.70;;;;;;;;;;8409483;28;20390;-71
2022/08/07 03:48:44;;;;;;;1.00;0.63;;;;;;;;;;8411660;28;20078;-71
2022/08/07 03:52:45;;;;;;;2.87;0.60;;;;;;;;;;8411495;28;20023;-70
2022/08/07 03:56:46;;;;;;;1.45;0.50;;;;;;;;;;8410374;28;20265;-71
2022/08/07 04:00:47;;;;;;;0.55;0.50;;;;;;;;;;8411780;28;20036;-71
2022/08/07 04:04:48;;;;;;;1.55;0.50;;;;;;;;;;8411052;28;20076;-71
2022/08/07 04:08:48;;;;;;;0.52;0.43;;;;;;;;;;8410844;28;20090;-70
2022/08/07 04:12:49;;;;;;;1.08;0.60;;;;;;;;;;8411653;28;20024;-71
2022/08/07 04:16:49;;;;;;;0.68;0.43;;;;;;;;;;8381137;28;20388;-71
2022/08/07 04:20:49;;;;;;;1.15;0.50;;;;;;;;;;8410553;28;20031;-71
2022/08/07 04:24:50;;;;;;;0.88;0.60;;;;;;;;;;8411685;28;20062;-71
2022/08/07 04:28:50;;;;;;;3.40;0.60;;;;;;;;;;8392228;27;20912;-71
2022/08/07 04:32:50;;;;;;;0.50;0.50;;;;;;;;;;8411016;28;20039;-70
2022/08/07 04:36:51;;;;;;;0.65;0.60;;;;;;;;;;8412530;28;20024;-71
2022/08/07 04:40:51;;;;;;;0.60;0.55;;;;;;;;;;8409662;28;20031;-71
2022/08/07 04:44:51;;;;;;;0.50;0.50;;;;;;;;;;8412379;28;20062;-70
2022/08/07 04:49:02;;;;;;;0.50;0.50;;;;;;;;;;8408480;28;20036;-71
2022/08/07 04:53:04;;;;;;;0.50;0.50;;;;;;;;;;8408295;28;20018;-71
2022/08/07 04:57:23;;;;;;;2.05;0.50;;;;;;;;;;8409289;28;20047;-70
2022/08/07 05:01:42;;;;;;;0.70;0.50;;;;;;;;;;8408371;28;20158;-71
2022/08/07 05:05:44;;;;;;;5.15;0.80;;;;;;;;;;8409720;28;20085;-71
2022/08/07 05:10:03;;;;;;;1.02;0.50;;;;;;;;;;8391400;28;20503;-70
2022/08/07 05:14:10;;;;;;;1.48;0.50;;;;;;;;;;8409547;28;20396;-71
2022/08/07 05:18:15;;;;;;;0.50;0.50;;;;;;;;;;8408470;28;20028;-71
2022/08/07 05:22:17;;;;;;;1.92;0.63;;;;;;;;;;8410421;28;20028;-71
2022/08/07 05:26:21;;;;;;;0.63;0.55;;;;;;;;;;8389475;28;20048;-70
2022/08/07 05:30:23;;;;;;;1.17;0.50;;;;;;;;;;8408048;28;25355;-71
2022/08/07 05:34:23;;;;;;;0.40;0.40;;;;;;;;;;8407459;28;20039;-70
2022/08/07 05:38:24;;;;;;;2.42;0.60;;;;;;;;;;8409525;28;20019;-71
2022/08/07 05:42:24;;;;;;;0.50;0.50;;;;;;;;;;8407692;28;20024;-71
2022/08/07 05:46:25;;;;;;;0.75;0.50;;;;;;;;;;8408204;28;20039;-71
2022/08/07 05:50:25;;;;;;;1.55;0.60;;;;;;;;;;8414144;28;20449;-70
2022/08/07 05:54:25;;;;;;;0.55;0.55;;;;;;;;;;8418036;28;20336;-71
2022/08/07 05:58:26;;;;;;;0.60;0.60;;;;;;;;;;8416218;28;20023;-70
2022/08/07 06:02:27;;;;;;;0.70;0.50;;;;;;;;;;8413036;28;20044;-71
2022/08/07 06:06:27;;;;;;;0.70;0.70;;;;;;;;;;8414014;28;20078;-71
2022/08/07 06:10:28;;;;;;;0.50;0.50;;;;;;;;;;8393398;28;20027;-71
2022/08/07 06:14:28;;;;;;;0.57;0.57;;;;;;;;;;8414489;28;20054;-71
2022/08/07 06:18:30;;;;;;;0.60;0.60;;;;;;;;;;8411704;28;21060;-71
2022/08/07 06:22:32;;;;;;;1.17;0.60;;;;;;;;;;8413977;28;20027;-70
2022/08/07 06:26:32;;;;;;;1.30;0.60;;;;;;;;;;8415257;28;20096;-71
2022/08/07 06:30:33;;;;;;;1.80;0.73;;;;;;;;;;8410344;28;20039;-71
2022/08/07 06:34:33;;;;;;;1.17;0.60;;;;;;;;;;8415802;28;20059;-71
2022/08/07 06:38:33;;;;;;;0.73;0.50;;;;;;;;;;8415742;27;20524;-71
2022/08/07 06:42:36;;;;;;;6.35;0.60;;;;;;;;;;8414083;28;20519;-71
2022/08/07 06:46:36;;;;;;;0.73;0.63;;;;;;;;;;8412344;28;20777;-71
2022/08/07 06:50:38;;;;;;;0.90;0.70;;;;;;;;;;8413947;28;20589;-71
2022/08/07 06:54:39;;;;;;;0.95;0.55;;;;;;;;;;8413703;28;20023;-71
2022/08/07 06:58:39;;;;;;;1.45;0.70;;;;;;;;;;8413183;28;20089;-70
2022/08/07 07:02:40;;;;;;;2.75;0.50;;;;;;;;;;8414006;28;20035;-71
2022/08/07 07:06:41;;;;;;;1.77;0.65;;;;;;;;;;8411913;28;20034;-71
2022/08/07 07:10:41;;;;;;;0.93;0.57;;;;;;;;;;8413933;28;20214;-71
2022/08/07 07:15:01;;;;;;;1.35;0.55;;;;;;;;;;8412665;28;20483;-71
2022/08/07 07:19:03;;;;;;;1.48;0.70;;;;;;;;;;8413067;28;20513;-71
2022/08/07 07:23:04;;;;;;;2.80;0.63;;;;;;;;;;8392423;28;20031;-71
2022/08/07 07:27:05;;;;;;;2.00;0.60;;;;;;;;;;8409810;28;20024;-71
2022/08/07 07:31:09;;;;;;;0.60;0.60;;;;;;;;;;8389563;28;20062;-71
2022/08/07 07:35:10;;;;;;;0.63;0.60;;;;;;;;;;8412588;28;20399;-71
2022/08/07 07:39:12;;;;;;;1.42;0.60;;;;;;;;;;8413861;28;20046;-72
2022/08/07 07:43:13;;;;;;;0.60;0.50;;;;;;;;;;8411475;28;20055;-71
2022/08/07 07:47:14;;;;;;;0.70;0.60;;;;;;;;;;8409902;28;20043;-71
2022/08/07 07:51:15;;;;;;;1.25;0.50;;;;;;;;;;8409823;28;20162;-71
2022/08/07 07:55:17;;;;;;;0.45;0.45;;;;;;;;;;8412674;28;20015;-71
2022/08/07 07:59:18;;;;;;;2.15;0.77;;;;;;;;;;8412001;28;20132;-72
2022/08/07 08:03:19;;;;;;;1.15;0.70;;;;;;;;;;8409070;28;20043;-72
2022/08/07 08:07:20;;;;;;;1.08;0.60;;;;;;;;;;8410714;28;20028;-71
2022/08/07 08:11:20;;;;;;;1.38;0.68;;;;;;;;;;8409276;27;20032;-72
2022/08/07 08:15:21;;;;;;;1.10;0.70;;;;;;;;;;8413087;28;20040;-72
2022/08/07 08:19:24;;;;;;;0.88;0.77;;;;;;;;;;8409136;28;20035;-71
2022/08/07 08:27:49;;;;;;;1.00;0.77;;;;;;;;;;8408524;28;20035;-71
2022/08/07 08:31:49;;;;;;;1.02;0.60;;;;;;;;;;8407486;28;20150;-72
2022/08/07 08:35:51;;;;;;;0.70;0.70;;;;;;;;;;8409399;28;20088;-71
2022/08/07 08:39:52;;;;;;;0.70;0.70;;;;;;;;;;8410133;28;20102;-71
2022/08/07 08:44:00;;;;;;;1.58;0.90;;;;;;;;;;8408662;28;20046;-71
2022/08/07 08:48:00;;;;;;;1.33;0.85;;;;;;;;;;8410799;28;20760;-71
2022/08/07 08:52:04;;;;;;;1.50;1.00;;;;;;;;;;8409154;28;20023;-71
2022/08/07 08:56:07;;;;;;;1.88;1.20;;;;;;;;;;8408410;28;20045;-72
2022/08/07 09:00:08;;;;;;;0.95;0.90;;;;;;;;;;8409225;28;20020;-72
2022/08/07 09:04:23;;;;;;;0.90;0.80;;;;;;;;;;8410601;28;20020;-71
2022/08/07 09:08:40;;;;;;;1.13;0.90;;;;;;;;;;8407143;28;20048;-72
2022/08/07 09:12:57;;;;;;;3.95;0.80;;;;;;;;;;8409209;28;20034;-72
2022/08/07 09:17:15;;;;;;;1.25;1.00;;;;;;;;;;8409806;28;20043;-71
2022/08/07 09:21:26;;;;;;;0.95;0.95;;;;;;;;;;8407550;28;20291;-71
2022/08/07 09:25:36;;;;;;;1.33;0.80;;;;;;;;;;8419125;28;20028;-71
2022/08/07 09:29:44;;;;;;;1.23;1.00;;;;;;;;;;8415147;28;20034;-72
2022/08/07 09:34:00;;;;;;;1.00;0.90;;;;;;;;;;8414317;27;20405;-71
2022/08/07 09:38:06;;;;;;;2.10;1.02;;;;;;;;;;8417464;28;20113;-71
2022/08/07 09:42:25;;;;;;;1.33;0.95;;;;;;;;;;8414578;28;20271;-72
2022/08/07 09:46:41;;;;;;;1.05;0.90;;;;;;;;;;8415838;28;20289;-71
2022/08/07 09:50:53;;;;;;;1.45;1.02;;;;;;;;;;8413998;28;20024;-72
2022/08/07 09:54:53;;;;;;;1.33;1.08;;;;;;;;;;8414942;28;20024;-72
2022/08/07 09:59:06;;;;;;;1.10;1.00;;;;;;;;;;8413760;27;20159;-71
2022/08/07 10:03:13;;;;;;;1.00;0.90;;;;;;;;;;8414465;28;20396;-71
2022/08/07 10:07:31;;;;;;;1.13;0.95;;;;;;;;;;8415056;28;20336;-71
2022/08/07 10:11:48;;;;;;;0.90;0.90;;;;;;;;;;8413018;28;20019;-71
2022/08/07 10:15:55;;;;;;;1.55;0.90;;;;;;;;;;8412917;28;20035;-72
2022/08/07 10:20:14;;;;;;;0.80;0.80;;;;;;;;;;8412586;28;20548;-71
2022/08/07 10:24:33;;;;;;;1.00;1.00;;;;;;;;;;8415146;28;20022;-72
2022/08/07 10:28:33;;;;;;;1.65;0.93;;;;;;;;;;8415935;28;20036;-71
2022/08/07 10:32:46;;;;;;;3.50;0.80;;;;;;;;;;8411307;28;20911;-71
2022/08/07 10:37:05;;;;;;;1.05;0.90;;;;;;;;;;8412928;28;20136;-71
2022/08/07 10:41:13;;;;;;;1.08;0.90;;;;;;;;;;8415236;28;20109;-71
2022/08/07 10:45:13;;;;;;;1.73;0.90;;;;;;;;;;8410286;28;20032;-72
2022/08/07 10:49:21;;;;;;;1.63;0.80;;;;;;;;;;8415643;28;20708;-71
2022/08/07 10:53:25;;;;;;;2.30;0.80;;;;;;;;;;8410658;27;20028;-71
2022/08/07 10:57:37;;;;;;;0.80;0.77;;;;;;;;;;8412547;27;20298;-72
2022/08/07 11:01:50;;;;;;;0.88;0.80;;;;;;;;;;8413041;28;20047;-72
2022/08/07 11:05:57;;;;;;;1.20;0.60;;;;;;;;;;8412949;28;20488;-71
2022/08/07 11:10:00;;;;;;;1.42;0.70;;;;;;;;;;8411691;28;20051;-71
2022/08/07 11:14:10;;;;;;;1.25;0.80;;;;;;;;;;8411683;28;20024;-71
2022/08/07 11:18:16;;;;;;;2.17;0.80;;;;;;;;;;8415653;28;20032;-72
2022/08/07 11:22:22;;;;;;;1.70;0.70;;;;;;;;;;8412412;28;20099;-71
2022/08/07 11:26:27;;;;;;;3.25;0.80;;;;;;;;;;8413210;28;20274;-72
2022/08/07 11:30:32;;;;;;;0.85;0.63;;;;;;;;;;8412145;27;20714;-72
2022/08/07 11:34:51;;;;;;;0.90;0.77;;;;;;;;;;8411390;28;20261;-71
2022/08/07 11:39:06;;;;;;;1.25;0.73;;;;;;;;;;8413116;28;20444;-72
2022/08/07 11:43:15;;;;;;;1.95;0.70;;;;;;;;;;8411047;28;20471;-71
2022/08/07 11:47:27;;;;;;;2.20;0.70;;;;;;;;;;8409486;28;20035;-71
2022/08/07 11:51:27;;;;;;;0.80;0.80;;;;;;;;;;8409623;27;20400;-72
2022/08/07 11:55:36;;;;;;;1.33;0.68;;;;;;;;;;8411463;28;20028;-71
2022/08/07 11:59:59;;;;;;;1.17;0.73;;;;;;;;;;8412363;28;20541;-72
2022/08/07 12:04:07;;;;;;;0.60;0.60;;;;;;;;;;8410645;28;20035;-72
2022/08/07 12:08:10;;;;;;;3.70;0.70;;;;;;;;;;8412797;27;20662;-71
2022/08/07 12:12:29;;;;;;;1.05;0.80;;;;;;;;;;8408083;28;20596;-71
2022/08/07 12:16:31;;;;;;;1.23;0.70;;;;;;;;;;8412589;27;20047;-71
2022/08/07 12:20:34;;;;;;;2.72;0.80;;;;;;;;;;8409325;28;20032;-71
2022/08/07 12:25:51;;;;;;;1.77;0.80;;;;;;;;;;8409228;28;20022;-71
2022/08/07 12:29:14;;;;;;;1.33;0.70;;;;;;;;;;8410875;28;20051;-71
2022/08/07 12:33:17;;;;;;;0.70;0.63;;;;;;;;;;8409242;28;20032;-71
2022/08/07 12:37:18;;;;;;;0.73;0.65;;;;;;;;;;8410913;28;20019;-71
2022/08/07 12:41:19;;;;;;;1.83;0.70;;;;;;;;;;8412683;28;20556;-72
2022/08/07 12:45:22;;;;;;;2.35;1.00;;;;;;;;;;8409301;27;20432;-72
2022/08/07 12:49:41;;;;;;;1.15;0.70;;;;;;;;;;8411529;28;20027;-71
2022/08/07 12:53:44;;;;;;;1.75;0.88;;;;;;;;;;8407760;28;20015;-72
2022/08/07 12:57:45;;;;;;;1.35;0.60;;;;;;;;;;8408158;28;20020;-71
2022/08/07 13:02:01;;;;;;;1.10;0.70;;;;;;;;;;8388062;28;20048;-72
2022/08/07 13:06:08;;;;;;;1.50;0.80;;;;;;;;;;8408386;28;20482;-72
2022/08/07 13:10:17;;;;;;;1.40;0.75;;;;;;;;;;8411213;28;20364;-71
2022/08/07 13:14:32;;;;;;;0.90;0.80;;;;;;;;;;8411054;28;20011;-71
2022/08/07 13:18:49;;;;;;;1.83;0.82;;;;;;;;;;8409154;28;20051;-71
2022/08/07 13:22:54;;;;;;;1.05;0.60;;;;;;;;;;8411782;28;20133;-71
2022/08/07 13:26:59;;;;;;;0.98;0.70;;;;;;;;;;8407096;28;20019;-71
2022/08/07 13:31:04;;;;;;;1.02;0.70;;;;;;;;;;8409993;28;20045;-71
2022/08/07 13:35:06;;;;;;;0.60;0.60;;;;;;;;;;8407918;28;20027;-71
2022/08/07 13:39:16;;;;;;;0.88;0.50;;;;;;;;;;8406578;28;20070;-72
2022/08/07 13:43:16;;;;;;;2.50;0.90;;;;;;;;;;8409594;28;20024;-71
2022/08/07 13:47:18;;;;;;;1.27;0.60;;;;;;;;;;8411816;28;20047;-72
2022/08/07 13:51:19;;;;;;;1.27;0.60;;;;;;;;;;8408008;28;20070;-71
2022/08/07 13:55:20;;;;;;;1.17;0.80;;;;;;;;;;8408783;28;20047;-72
2022/08/07 13:59:24;;;;;;;2.92;0.70;;;;;;;;;;8409919;28;20472;-71
2022/08/07 14:03:25;;;;;;;2.25;0.68;;;;;;;;;;8388208;28;20306;-72
2022/08/07 14:07:37;;;;;;;1.10;0.80;;;;;;;;;;8410184;28;20389;-72
2022/08/07 14:11:43;;;;;;;2.07;0.77;;;;;;;;;;8415268;28;20020;-71
2022/08/07 14:15:50;;;;;;;2.17;0.60;;;;;;;;;;8415035;27;20118;-72
2022/08/07 14:19:56;;;;;;;0.70;0.60;;;;;;;;;;8414748;28;20024;-71
2022/08/07 14:24:00;;;;;;;0.52;0.52;;;;;;;;;;8413724;28;20103;-71
2022/08/07 14:28:05;;;;;;;1.05;0.65;;;;;;;;;;8414672;28;20047;-72
2022/08/07 14:32:06;;;;;;;0.82;0.65;;;;;;;;;;8412801;27;20131;-71
2022/08/07 14:36:08;;;;;;;1.88;0.80;;;;;;;;;;8411652;28;20023;-72
2022/08/07 14:40:13;;;;;;;0.73;0.70;;;;;;;;;;8414286;28;20023;-71
2022/08/07 14:44:13;;;;;;;1.20;0.70;;;;;;;;;;8412822;28;20028;-71
2022/08/07 14:48:15;;;;;;;0.73;0.73;;;;;;;;;;8412061;28;20039;-71
2022/08/07 14:52:15;;;;;;;;;;;;;;;;;;8394526;28;20351;-71
2022/08/07 14:56:16;;;;;;;1.38;0.90;;;;;;;;;;8411246;28;19911;-71
2022/08/07 15:00:18;;;;;;;1.20;0.80;;;;;;;;;;8415051;28;20073;-71
2022/08/07 15:04:21;;;;;;;2.15;0.85;;;;;;;;;;8413839;28;20031;-72
2022/08/07 15:08:23;;;;;;;1.20;0.73;;;;;;;;;;8413860;28;20019;-71
2022/08/07 15:12:25;;;;;;;1.95;0.80;;;;;;;;;;8413185;28;20039;-71
2022/08/07 15:16:45;;;;;;;0.75;0.65;;;;;;;;;;8413253;28;20606;-71
2022/08/07 15:20:46;;;;;;;1.15;0.70;;;;;;;;;;8412053;28;20024;-71
2022/08/07 15:24:48;;;;;;;0.93;0.63;;;;;;;;;;8412676;28;20786;-72
2022/08/07 15:28:52;;;;;;;1.90;0.60;;;;;;;;;;8413314;28;20027;-71
2022/08/07 15:32:53;;;;;;;1.10;0.70;;;;;;;;;;8411113;28;20859;-72
2022/08/07 15:36:53;;;;;;;1.13;0.70;;;;;;;;;;8410943;28;20027;-71
2022/08/07 15:40:54;;;;;;;2.42;0.80;;;;;;;;;;8411945;28;20300;-71
2022/08/07 15:44:54;;;;;;;0.63;0.63;;;;;;;;;;8412754;27;20020;-72
2022/08/07 15:48:56;;;;;;;1.75;0.70;;;;;;;;;;8383483;27;20065;-71
2022/08/07 15:53:04;;;;;;;2.47;0.60;;;;;;;;;;8412294;28;20961;-71
2022/08/07 15:57:06;;;;;;;1.52;0.80;;;;;;;;;;8410661;28;20348;-72
2022/08/07 16:01:12;;;;;;;2.83;0.70;;;;;;;;;;8410226;28;20028;-72
2022/08/07 16:05:16;;;;;;;2.50;0.80;;;;;;;;;;8410939;28;20412;-71
2022/08/07 16:09:16;;;;;;;1.38;0.68;;;;;;;;;;8413005;27;20012;-71
2022/08/07 16:13:36;;;;;;;0.70;0.70;;;;;;;;;;8412357;28;20134;-72
2022/08/07 16:17:55;;;;;;;1.40;0.80;;;;;;;;;;8409861;28;20050;-72
2022/08/07 16:22:02;;;;;;;1.15;0.60;;;;;;;;;;8409343;28;20036;-72
2022/08/07 16:26:09;;;;;;;0.85;0.60;;;;;;;;;;8411910;28;20019;-72
2022/08/07 16:30:09;;;;;;;1.15;0.70;;;;;;;;;;8408971;28;20564;-72
2022/08/07 16:34:21;;;;;;;2.25;0.73;;;;;;;;;;8412737;28;20283;-71
2022/08/07 16:38:21;;;;;;;1.13;0.60;;;;;;;;;;8411486;28;20062;-72
2022/08/07 16:42:21;;;;;;;0.60;0.60;;;;;;;;;;8410443;28;20515;-71
2022/08/07 16:46:40;;;;;;;0.85;0.60;;;;;;;;;;8409552;28;20051;-71
2022/08/07 16:50:45;;;;;;;1.75;0.90;;;;;;;;;;8410459;28;20035;-71
2022/08/07 16:54:59;;;;;;;0.57;0.57;;;;;;;;;;8411872;28;20544;-71
2022/08/07 16:59:18;;;;;;;2.58;0.65;;;;;;;;;;8408718;28;20035;-72
2022/08/07 17:03:23;;;;;;;1.40;0.50;;;;;;;;;;8389506;28;20070;-71
2022/08/07 17:07:40;;;;;;;0.60;0.60;;;;;;;;;;8409943;28;20015;-71
2022/08/07 17:11:50;;;;;;;2.40;0.70;;;;;;;;;;8409812;28;20047;-72
2022/08/07 17:15:50;;;;;;;0.57;0.57;;;;;;;;;;8412867;28;20832;-72
2022/08/07 17:19:54;;;;;;;0.63;0.63;;;;;;;;;;8408015;28;20080;-71
2022/08/07 17:24:00;;;;;;;3.10;0.70;;;;;;;;;;8409028;28;20023;-71
2022/08/07 17:28:13;;;;;;;2.95;0.70;;;;;;;;;;8412317;28;20459;-72
2022/08/07 17:32:23;;;;;;;3.70;1.02;;;;;;;;;;8408965;28;20120;-71
2022/08/07 17:36:29;;;;;;;0.80;0.70;;;;;;;;;;8408952;28;20062;-71
2022/08/07 17:40:57;;;;;;;0.95;0.65;;;;;;;;;;8406720;28;20027;-72
2022/08/07 17:44:58;;;;;;;0.50;0.50;;;;;;;;;;8414074;28;20353;-71
2022/08/07 17:49:12;;;;;;;2.17;0.55;;;;;;;;;;8419430;28;20225;-71
2022/08/07 17:53:24;;;;;;;0.63;0.57;;;;;;;;;;8397263;28;20130;-72
2022/08/07 17:57:36;;;;;;;0.85;0.60;;;;;;;;;;8415779;28;20039;-71
2022/08/07 18:01:49;;;;;;;0.80;0.60;;;;;;;;;;8413771;28;20275;-72
2022/08/07 18:06:02;;;;;;;3.08;0.57;;;;;;;;;;8417868;27;20035;-72
2022/08/07 18:10:09;;;;;;;0.82;0.60;;;;;;;;;;8395703;28;20920;-71
2022/08/07 18:14:09;;;;;;;0.85;0.60;;;;;;;;;;8394310;28;20020;-71
2022/08/07 18:18:11;;;;;;;0.60;0.60;;;;;;;;;;8413249;28;20483;-72
2022/08/07 18:22:12;;;;;;;0.50;0.50;;;;;;;;;;8414225;27;20843;-72
2022/08/07 18:26:13;;;;;;;1.10;0.80;;;;;;;;;;8416274;28;20777;-72
2022/08/07 18:30:22;;;;;;;0.95;0.70;;;;;;;;;;8412353;28;20482;-72
2022/08/07 18:34:32;;;;;;;1.02;0.68;;;;;;;;;;8416475;28;20035;-72
2022/08/07 18:38:44;;;;;;;1.55;0.55;;;;;;;;;;8414119;28;20024;-72
2022/08/07 18:43:00;;;;;;;1.13;0.60;;;;;;;;;;8412339;27;20118;-72
2022/08/07 18:47:09;;;;;;;0.50;0.50;;;;;;;;;;8413374;28;20039;-72
2022/08/07 18:51:16;;;;;;;1.75;0.80;;;;;;;;;;8394290;28;20228;-72
2022/08/07 18:55:19;;;;;;;0.50;0.50;;;;;;;;;;8415593;27;20023;-71
2022/08/07 18:59:39;;;;;;;0.95;0.60;;;;;;;;;;8412697;28;20032;-72
2022/08/07 19:03:43;;;;;;;0.70;0.70;;;;;;;;;;8411820;28;20028;-72
2022/08/07 19:07:56;;;;;;;0.98;0.75;;;;;;;;;;8413700;28;20034;-72
2022/08/07 19:11:56;;;;;;;1.80;0.60;;;;;;;;;;8392014;28;20015;-72
2022/08/07 19:16:15;;;;;;;1.85;0.68;;;;;;;;;;8410103;28;20766;-72
2022/08/07 19:20:16;;;;;;;1.13;0.80;;;;;;;;;;8410125;28;20035;-71
2022/08/07 19:24:20;;;;;;;0.60;0.60;;;;;;;;;;8413571;28;20046;-71
2022/08/07 19:28:21;;;;;;;0.60;0.60;;;;;;;;;;8412453;28;20031;-71
2022/08/07 19:32:22;;;;;;;0.85;0.63;;;;;;;;;;8411488;27;20988;-71
2022/08/07 19:36:24;;;;;;;0.75;0.70;;;;;;;;;;8412832;28;20054;-71
2022/08/07 19:40:31;;;;;;;0.93;0.80;;;;;;;;;;8411484;28;20088;-72
2022/08/07 19:44:39;;;;;;;1.45;0.63;;;;;;;;;;8411335;28;20035;-71
2022/08/07 19:48:42;;;;;;;0.50;0.50;;;;;;;;;;8409423;28;20798;-71
2022/08/07 19:52:42;;;;;;;3.40;0.70;;;;;;;;;;8408719;28;20090;-71
2022/08/07 19:56:44;;;;;;;1.05;0.60;;;;;;;;;;8412149;28;20020;-71
2022/08/07 20:00:46;;;;;;;1.75;0.60;;;;;;;;;;8412278;28;20038;-71
2022/08/07 20:04:48;;;;;;;0.60;0.60;;;;;;;;;;8409605;28;20465;-71
2022/08/07 20:08:50;;;;;;;0.63;0.63;;;;;;;;;;8394217;28;20457;-71
2022/08/07 20:12:52;;;;;;;1.27;0.80;;;;;;;;;;8411121;27;20077;-71
2022/08/07 20:16:55;;;;;;;1.65;0.70;;;;;;;;;;8412930;28;20032;-71
2022/08/07 20:20:56;;;;;;;0.85;0.70;;;;;;;;;;8411103;28;20059;-71
2022/08/07 20:25:02;;;;;;;0.60;0.60;;;;;;;;;;8409822;28;20607;-71
2022/08/07 20:29:03;;;;;;;0.77;0.77;;;;;;;;;;8411087;28;20401;-71
2022/08/07 20:33:04;;;;;;;1.85;0.70;;;;;;;;;;8408342;28;20790;-71
2022/08/07 20:37:04;;;;;;;3.22;0.80;;;;;;;;;;8409858;28;20027;-71
2022/08/07 20:41:06;;;;;;;0.90;0.70;;;;;;;;;;8413146;28;20304;-70
2022/08/07 20:45:07;;;;;;;1.25;0.73;;;;;;;;;;8407871;28;20630;-71
2022/08/07 20:49:08;;;;;;;1.38;0.70;;;;;;;;;;8407341;28;20153;-70
2022/08/07 20:53:14;;;;;;;1.00;0.70;;;;;;;;;;8408489;28;20467;-71
2022/08/07 20:57:15;;;;;;;0.75;0.60;;;;;;;;;;8409666;28;20434;-71
2022/08/07 21:01:16;;;;;;;0.63;0.60;;;;;;;;;;8409059;28;20035;-71
2022/08/07 21:05:17;;;;;;;0.70;0.70;;;;;;;;;;8408450;28;20328;-71
2022/08/07 21:09:18;;;;;;;0.68;0.68;;;;;;;;;;8407936;28;20088;-70
2022/08/07 21:13:20;;;;;;;2.25;0.80;;;;;;;;;;8384522;28;20067;-71
2022/08/07 21:17:23;;;;;;;1.63;0.88;;;;;;;;;;8410359;28;20039;-71
2022/08/07 21:21:24;;;;;;;0.70;0.70;;;;;;;;;;8415127;28;20047;-71
2022/08/07 21:25:43;;;;;;;1.52;0.77;;;;;;;;;;8417630;28;20047;-71
2022/08/07 21:29:50;;;;;;;1.23;0.60;;;;;;;;;;8414763;27;20128;-71
2022/08/07 21:34:06;;;;;;;0.75;0.70;;;;;;;;;;8414156;27;20134;-71
2022/08/07 21:38:25;;;;;;;1.80;0.70;;;;;;;;;;8397005;28;20940;-71
2022/08/07 21:42:28;;;;;;;0.70;0.63;;;;;;;;;;8412617;28;20044;-71
2022/08/07 21:46:39;;;;;;;0.70;0.70;;;;;;;;;;8415929;28;20040;-71
2022/08/07 21:50:51;;;;;;;0.55;0.55;;;;;;;;;;8414130;27;20024;-71
2022/08/07 21:54:56;;;;;;;1.10;0.98;;;;;;;;;;8416096;28;20043;-71
2022/08/07 21:59:12;;;;;;;0.60;0.60;;;;;;;;;;8416508;28;20496;-71
2022/08/07 22:03:28;;;;;;;0.68;0.60;;;;;;;;;;8415951;28;20089;-71
2022/08/07 22:07:31;;;;;;;0.60;0.60;;;;;;;;;;8415063;28;20126;-71
2022/08/07 22:11:32;;;;;;;0.50;0.50;;;;;;;;;;8413458;28;20019;-71
2022/08/07 22:15:33;;;;;;;0.60;0.60;;;;;;;;;;8411661;28;20382;-71
2022/08/07 22:19:37;;;;;;;0.63;0.60;;;;;;;;;;8414759;28;20123;-71
2022/08/07 22:23:56;;;;;;;0.60;0.60;;;;;;;;;;8392716;28;20124;-70
2022/08/07 22:28:05;;;;;;;1.23;0.70;;;;;;;;;;8412285;28;20039;-71
2022/08/07 22:32:24;;;;;;;0.50;0.50;;;;;;;;;;8404895;28;20951;-71
2022/08/07 22:36:30;;;;;;;0.60;0.60;;;;;;;;;;8412783;27;20039;-70
2022/08/07 22:40:51;;;;;;;0.50;0.50;;;;;;;;;;8412380;28;20255;-70
2022/08/07 22:44:54;;;;;;;1.08;0.50;;;;;;;;;;8413254;27;20031;-71
2022/08/07 22:49:05;;;;;;;0.55;0.50;;;;;;;;;;8411975;28;20051;-70
2022/08/07 22:53:20;;;;;;;2.90;0.60;;;;;;;;;;8414900;28;20012;-70
2022/08/07 22:57:56;;;;;;;1.77;0.60;;;;;;;;;;8412257;28;20032;-71
2022/08/07 23:02:07;;;;;;;0.47;0.47;;;;;;;;;;8310606;28;20275;-71
2022/08/07 23:06:27;;;;;;;0.65;0.65;;;;;;;;;;8411886;28;20468;-71
2022/08/07 23:10:33;;;;;;;1.35;0.60;;;;;;;;;;8412113;28;20022;-71
2022/08/07 23:14:39;;;;;;;2.25;0.75;;;;;;;;;;8412662;28;20019;-71
2022/08/07 23:20:22;;;;;;;0.77;0.77;;;;;;;;;;8412017;28;20622;-70
2022/08/07 23:23:29;;;;;;;0.70;0.60;;;;;;;;;;8403907;28;20034;-71
2022/08/07 23:27:32;;;;;;;2.55;0.60;;;;;;;;;;8409835;28;20042;-71
2022/08/07 23:31:40;;;;;;;0.60;0.60;;;;;;;;;;8398100;28;20130;-70
2022/08/07 23:35:50;;;;;;;1.70;0.70;;;;;;;;;;8411374;28;20027;-71
2022/08/07 23:39:59;;;;;;;0.85;0.60;;;;;;;;;;8412663;28;20029;-71
2022/08/07 23:44:11;;;;;;;0.60;0.60;;;;;;;;;;8408492;28;20027;-71
2022/08/07 23:48:30;;;;;;;0.50;0.50;;;;;;;;;;8408199;28;20063;-71
2022/08/07 23:52:33;;;;;;;0.60;0.60;;;;;;;;;;8408248;28;20123;-71
2022/08/07 23:56:33;;;;;;;0.63;0.63;;;;;;;;;;8408748;28;20050;-71
